PWSweather.com
Personal Weather Stations
Station Observations
SBERGENWX
Wood Ridge, NJ 07075

Wood Ridge, NJ 07075

Lat: 40.851667, Lon: -74.088131

Elevation: 177

Station Type: Davis Vantage Vue

http://201weather.com/

High Low Average
Temperature 15.8°F-9.0°C -0.3°F-17.9°C 6.0°F-14.4°C
Dew Point -4.9°F-20.5°C -16.6°F-27.0°C -11.3°F-24.1°C
Winds 5.8 mph 9.3 kmh Calm Calm 2.0 mph W3.2 kmh W
Wind Gusts 12.7 mph20.4 kmh -- 6.0 mph9.7 kmh
Humidity 53% 37% 44%
Pressure 30.42 in1030.1 mb 30.25 in1024.4 mb -
Precipitation 0.00 in0.0 mm - -
Hour Temp Dew Point Humidity Winds Wind Gusts Pressure Precip Precip Rate Daily Precip Total
12:00 AM 4.0°F-15.6°C -14.6°F-25.9°C 41% Calm Calm -- 30.23 in1023.7 mb - 0.00 in0.0 mm 0.00 in0.0 mm
12:15 AM 3.7°F-15.7°C -14.8°F-26.0°C 41% Calm Calm 3.5 mph5.6 kmh 30.23 in1023.7 mb - 0.00 in0.0 mm 0.00 in0.0 mm
12:30 AM 3.5°F-15.8°C -15.0°F-26.1°C 41% 2.3 mph WNW3.7 kmh WNW 6.9 mph11.1 kmh 30.24 in1024.0 mb - 0.00 in0.0 mm 0.00 in0.0 mm
12:45 AM 3.3°F-15.9°C -15.2°F-26.2°C 41% 5.8 mph WNW9.3 kmh WNW 10.4 mph16.7 kmh 30.24 in1024.0 mb - 0.00 in0.0 mm 0.00 in0.0 mm
01:00 AM 3.1°F-16.1°C -15.3°F-26.3°C 41% 5.8 mph WNW9.3 kmh WNW 10.4 mph16.7 kmh 30.25 in1024.4 mb - 0.00 in0.0 mm 0.00 in0.0 mm
01:15 AM 2.8°F-16.2°C -15.6°F-26.4°C 41% 2.3 mph W3.7 kmh W 6.9 mph11.1 kmh 30.25 in1024.4 mb - 0.00 in0.0 mm 0.00 in0.0 mm
01:30 AM 2.5°F-16.4°C -15.4°F-26.3°C 42% 2.3 mph WNW3.7 kmh WNW 5.8 mph9.3 kmh 30.25 in1024.4 mb - 0.00 in0.0 mm 0.00 in0.0 mm
01:45 AM 2.3°F-16.5°C -15.6°F-26.4°C 42% 4.6 mph WNW7.4 kmh WNW 10.4 mph16.7 kmh 30.25 in1024.4 mb - 0.00 in0.0 mm 0.00 in0.0 mm
02:00 AM 2.2°F-16.6°C -15.3°F-26.3°C 43% 5.8 mph WNW9.3 kmh WNW 11.5 mph18.5 kmh 30.25 in1024.4 mb - 0.00 in0.0 mm 0.00 in0.0 mm
02:15 AM 1.8°F-16.8°C -16.1°F-26.7°C 42% 3.5 mph WNW5.6 kmh WNW 3.5 mph5.6 kmh 30.25 in1024.4 mb - 0.00 in0.0 mm 0.00 in0.0 mm
02:30 AM 1.6°F-16.9°C -15.3°F-26.3°C 44% 2.3 mph WNW3.7 kmh WNW 4.6 mph7.4 kmh 30.26 in1024.7 mb - 0.00 in0.0 mm 0.00 in0.0 mm
02:45 AM 1.4°F-17.0°C -16.0°F-26.7°C 43% 3.5 mph WNW5.6 kmh WNW 6.9 mph11.1 kmh 30.26 in1024.7 mb - 0.00 in0.0 mm 0.00 in0.0 mm
03:00 AM 1.3°F-17.1°C -15.6°F-26.4°C 44% 1.2 mph WNW1.9 kmh WNW 4.6 mph7.4 kmh 30.27 in1025.1 mb - 0.00 in0.0 mm 0.00 in0.0 mm
03:15 AM 1.2°F-17.1°C -15.2°F-26.2°C 45% Calm Calm 3.5 mph5.6 kmh 30.28 in1025.4 mb - 0.00 in0.0 mm 0.00 in0.0 mm
03:30 AM 1.1°F-17.2°C -15.8°F-26.6°C 44% 5.8 mph WNW9.3 kmh WNW 9.2 mph14.8 kmh 30.28 in1025.4 mb - 0.00 in0.0 mm 0.00 in0.0 mm
03:45 AM 0.9°F-17.3°C -16.4°F-26.9°C 43% 4.6 mph W7.4 kmh W 11.5 mph18.5 kmh 30.29 in1025.7 mb - 0.00 in0.0 mm 0.00 in0.0 mm
04:00 AM 0.8°F-17.3°C -15.6°F-26.4°C 45% 1.2 mph WNW1.9 kmh WNW 8.1 mph13.0 kmh 30.29 in1025.7 mb - 0.00 in0.0 mm 0.00 in0.0 mm
04:15 AM 0.6°F-17.4°C -15.8°F-26.6°C 45% 4.6 mph WNW7.4 kmh WNW 10.4 mph16.7 kmh 30.29 in1025.7 mb - 0.00 in0.0 mm 0.00 in0.0 mm
04:30 AM 0.4°F-17.6°C -16.4°F-26.9°C 44% 3.5 mph W5.6 kmh W 12.7 mph20.4 kmh 30.29 in1025.7 mb - 0.00 in0.0 mm 0.00 in0.0 mm
04:45 AM 0.3°F-17.6°C -16.1°F-26.7°C 45% 4.6 mph WNW7.4 kmh WNW 10.4 mph16.7 kmh 30.30 in1026.1 mb - 0.00 in0.0 mm 0.00 in0.0 mm
05:00 AM 0.2°F-17.7°C -16.6°F-27.0°C 44% 5.8 mph WNW9.3 kmh WNW 9.2 mph14.8 kmh 30.31 in1026.4 mb - 0.00 in0.0 mm 0.00 in0.0 mm
05:15 AM 0.2°F-17.7°C -16.6°F-27.0°C 44% 5.8 mph WNW9.3 kmh WNW 10.4 mph16.7 kmh 30.32 in1026.8 mb - 0.00 in0.0 mm 0.00 in0.0 mm
05:30 AM 0.2°F-17.7°C -15.3°F-26.3°C 47% 2.3 mph W3.7 kmh W 8.1 mph13.0 kmh 30.33 in1027.1 mb - 0.00 in0.0 mm 0.00 in0.0 mm
05:45 AM 0.0°F-17.8°C -15.9°F-26.6°C 46% 3.5 mph W5.6 kmh W 5.8 mph9.3 kmh 30.33 in1027.1 mb - 0.00 in0.0 mm 0.00 in0.0 mm
06:00 AM -0.2°F-17.9°C -15.7°F-26.5°C 47% 2.3 mph W3.7 kmh W 3.5 mph5.6 kmh 30.33 in1027.1 mb - 0.00 in0.0 mm 0.00 in0.0 mm
06:15 AM -0.3°F-17.9°C -15.4°F-26.3°C 48% 5.8 mph WNW9.3 kmh WNW 10.4 mph16.7 kmh 30.33 in1027.1 mb - 0.00 in0.0 mm 0.00 in0.0 mm
06:30 AM -0.3°F-17.9°C -15.8°F-26.6°C 47% 1.2 mph W1.9 kmh W 1.2 mph1.9 kmh 30.34 in1027.4 mb - 0.00 in0.0 mm 0.00 in0.0 mm
06:45 AM -0.3°F-17.9°C -15.8°F-26.6°C 47% Calm Calm -- 30.34 in1027.4 mb - 0.00 in0.0 mm 0.00 in0.0 mm
07:00 AM -0.3°F-17.9°C -15.8°F-26.6°C 47% Calm Calm -- 30.34 in1027.4 mb - 0.00 in0.0 mm 0.00 in0.0 mm
07:15 AM -0.3°F-17.9°C -15.8°F-26.6°C 47% Calm Calm -- 30.36 in1028.1 mb - 0.00 in0.0 mm 0.00 in0.0 mm
07:30 AM -0.3°F-17.9°C -15.8°F-26.6°C 47% Calm Calm -- 30.36 in1028.1 mb - 0.00 in0.0 mm 0.00 in0.0 mm
07:45 AM -0.3°F-17.9°C -15.8°F-26.6°C 47% Calm Calm -- 30.37 in1028.4 mb - 0.00 in0.0 mm 0.00 in0.0 mm
08:00 AM -0.3°F-17.9°C -15.8°F-26.6°C 47% Calm Calm -- 30.38 in1028.8 mb - 0.00 in0.0 mm 0.00 in0.0 mm
08:15 AM -0.3°F-17.9°C -15.8°F-26.6°C 47% Calm Calm -- 30.38 in1028.8 mb - 0.00 in0.0 mm 0.00 in0.0 mm
08:30 AM -0.3°F-17.9°C -15.8°F-26.6°C 47% Calm Calm 6.9 mph11.1 kmh 30.39 in1029.1 mb - 0.00 in0.0 mm 0.00 in0.0 mm
08:45 AM 0.3°F-17.6°C -12.9°F-24.9°C 53% 1.2 mph W1.9 kmh W 6.9 mph11.1 kmh 30.39 in1029.1 mb - 0.00 in0.0 mm 0.00 in0.0 mm
09:00 AM 0.6°F-17.4°C -12.6°F-24.8°C 53% 1.2 mph WNW1.9 kmh WNW 5.8 mph9.3 kmh 30.40 in1029.5 mb - 0.00 in0.0 mm 0.00 in0.0 mm
09:15 AM 1.1°F-17.2°C -12.1°F-24.5°C 53% 2.3 mph WNW3.7 kmh WNW 5.8 mph9.3 kmh 30.40 in1029.5 mb - 0.00 in0.0 mm 0.00 in0.0 mm
09:30 AM 1.3°F-17.1°C -12.3°F-24.6°C 52% 3.5 mph W5.6 kmh W 6.9 mph11.1 kmh 30.41 in1029.8 mb - 0.00 in0.0 mm 0.00 in0.0 mm
09:45 AM 1.8°F-16.8°C -12.6°F-24.8°C 50% 4.6 mph WNW7.4 kmh WNW 4.6 mph7.4 kmh 30.41 in1029.8 mb - 0.00 in0.0 mm 0.00 in0.0 mm
10:00 AM 2.3°F-16.5°C -11.8°F-24.3°C 51% 2.3 mph W3.7 kmh W 9.2 mph14.8 kmh 30.42 in1030.1 mb - 0.00 in0.0 mm 0.00 in0.0 mm
10:15 AM 3.3°F-15.9°C -11.2°F-24.0°C 50% 1.2 mph W1.9 kmh W 9.2 mph14.8 kmh 30.42 in1030.1 mb - 0.00 in0.0 mm 0.00 in0.0 mm
10:30 AM 3.6°F-15.8°C -10.5°F-23.6°C 51% 3.5 mph W5.6 kmh W 6.9 mph11.1 kmh 30.42 in1030.1 mb - 0.00 in0.0 mm 0.00 in0.0 mm
10:45 AM 3.9°F-15.6°C -11.0°F-23.9°C 49% 3.5 mph WNW5.6 kmh WNW 9.2 mph14.8 kmh 30.42 in1030.1 mb - 0.00 in0.0 mm 0.00 in0.0 mm
11:00 AM 4.6°F-15.2°C -10.8°F-23.8°C 48% 2.3 mph W3.7 kmh W 6.9 mph11.1 kmh 30.42 in1030.1 mb - 0.00 in0.0 mm 0.00 in0.0 mm
11:15 AM 5.5°F-14.7°C -10.4°F-23.6°C 47% 3.5 mph NW5.6 kmh NW 3.5 mph5.6 kmh 30.42 in1030.1 mb - 0.00 in0.0 mm 0.00 in0.0 mm
11:30 AM 6.2°F-14.3°C -10.2°F-23.4°C 46% 5.8 mph NW9.3 kmh NW 9.2 mph14.8 kmh 30.41 in1029.8 mb - 0.00 in0.0 mm 0.00 in0.0 mm
11:45 AM 6.7°F-14.1°C -9.3°F-22.9°C 47% 1.2 mph W1.9 kmh W 2.3 mph3.7 kmh 30.41 in1029.8 mb - 0.00 in0.0 mm 0.00 in0.0 mm
12:00 PM 7.2°F-13.8°C -9.7°F-23.2°C 45% 3.5 mph WNW5.6 kmh WNW 8.1 mph13.0 kmh 30.41 in1029.8 mb - 0.00 in0.0 mm 0.00 in0.0 mm
12:15 PM 7.6°F-13.6°C -9.8°F-23.2°C 44% 5.8 mph WNW9.3 kmh WNW 8.1 mph13.0 kmh 30.41 in1029.8 mb - 0.00 in0.0 mm 0.00 in0.0 mm
12:30 PM 8.4°F-13.1°C -9.6°F-23.1°C 43% 3.5 mph WNW5.6 kmh WNW 8.1 mph13.0 kmh 30.41 in1029.8 mb - 0.00 in0.0 mm 0.00 in0.0 mm
12:45 PM 9.4°F-12.6°C -8.1°F-22.3°C 44% 1.2 mph WSW1.9 kmh WSW 3.5 mph5.6 kmh 30.40 in1029.5 mb - 0.00 in0.0 mm 0.00 in0.0 mm
01:00 PM 9.6°F-12.4°C -9.4°F-23.0°C 41% 4.6 mph WNW7.4 kmh WNW 11.5 mph18.5 kmh 30.39 in1029.1 mb - 0.00 in0.0 mm 0.00 in0.0 mm
01:15 PM 9.8°F-12.3°C -8.7°F-22.6°C 42% 3.5 mph WNW5.6 kmh WNW 5.8 mph9.3 kmh 30.37 in1028.4 mb - 0.00 in0.0 mm 0.00 in0.0 mm
01:30 PM 10.7°F-11.8°C -7.9°F-22.2°C 42% 2.3 mph WNW3.7 kmh WNW 4.6 mph7.4 kmh 30.36 in1028.1 mb - 0.00 in0.0 mm 0.00 in0.0 mm
01:45 PM 11.2°F-11.6°C -8.5°F-22.5°C 40% 1.2 mph WNW1.9 kmh WNW 9.2 mph14.8 kmh 30.36 in1028.1 mb - 0.00 in0.0 mm 0.00 in0.0 mm
02:00 PM 11.1°F-11.6°C -8.1°F-22.3°C 41% 2.3 mph W3.7 kmh W 11.5 mph18.5 kmh 30.35 in1027.8 mb - 0.00 in0.0 mm 0.00 in0.0 mm
02:15 PM 11.8°F-11.2°C -8.4°F-22.4°C 39% 1.2 mph WNW1.9 kmh WNW 3.5 mph5.6 kmh 30.35 in1027.8 mb - 0.00 in0.0 mm 0.00 in0.0 mm
02:30 PM 12.4°F-10.9°C -7.4°F-21.9°C 40% 1.2 mph W1.9 kmh W 3.5 mph5.6 kmh 30.34 in1027.4 mb - 0.00 in0.0 mm 0.00 in0.0 mm
02:45 PM 12.8°F-10.7°C -7.6°F-22.0°C 39% 1.2 mph W1.9 kmh W 2.3 mph3.7 kmh 30.34 in1027.4 mb - 0.00 in0.0 mm 0.00 in0.0 mm
03:00 PM 12.9°F-10.6°C -6.9°F-21.6°C 40% 1.2 mph W1.9 kmh W 8.1 mph13.0 kmh 30.33 in1027.1 mb - 0.00 in0.0 mm 0.00 in0.0 mm
03:15 PM 13.6°F-10.2°C -6.3°F-21.3°C 40% 2.3 mph WSW3.7 kmh WSW 3.5 mph5.6 kmh 30.33 in1027.1 mb - 0.00 in0.0 mm 0.00 in0.0 mm
03:30 PM 13.7°F-10.2°C -7.3°F-21.8°C 38% Calm Calm 2.3 mph3.7 kmh 30.32 in1026.8 mb - 0.00 in0.0 mm 0.00 in0.0 mm
03:45 PM 14.7°F-9.6°C -6.4°F-21.3°C 38% 2.3 mph WSW3.7 kmh WSW 4.6 mph7.4 kmh 30.32 in1026.8 mb - 0.00 in0.0 mm 0.00 in0.0 mm
04:00 PM 15.6°F-9.1°C -5.6°F-20.9°C 38% Calm Calm 2.3 mph3.7 kmh 30.32 in1026.8 mb - 0.00 in0.0 mm 0.00 in0.0 mm
04:15 PM 15.3°F-9.3°C -6.3°F-21.3°C 37% Calm Calm 4.6 mph7.4 kmh 30.32 in1026.8 mb - 0.00 in0.0 mm 0.00 in0.0 mm
04:30 PM 15.8°F-9.0°C -5.9°F-21.1°C 37% 1.2 mph W1.9 kmh W 3.5 mph5.6 kmh 30.33 in1027.1 mb - 0.00 in0.0 mm 0.00 in0.0 mm
04:45 PM 15.1°F-9.4°C -5.4°F-20.8°C 39% 1.2 mph W1.9 kmh W 3.5 mph5.6 kmh 30.33 in1027.1 mb - 0.00 in0.0 mm 0.00 in0.0 mm
05:00 PM 14.6°F-9.7°C -4.9°F-20.5°C 41% 2.3 mph W3.7 kmh W 9.2 mph14.8 kmh 30.34 in1027.4 mb - 0.00 in0.0 mm 0.00 in0.0 mm
05:15 PM 14.2°F-9.9°C -5.2°F-20.7°C 41% 2.3 mph WSW3.7 kmh WSW 4.6 mph7.4 kmh 30.33 in1027.1 mb - 0.00 in0.0 mm 0.00 in0.0 mm
05:30 PM 13.7°F-10.2°C -5.7°F-20.9°C 41% 3.5 mph W5.6 kmh W 6.9 mph11.1 kmh 30.34 in1027.4 mb - 0.00 in0.0 mm 0.00 in0.0 mm
05:45 PM 13.4°F-10.3°C -5.9°F-21.1°C 41% 1.2 mph SW1.9 kmh SW 3.5 mph5.6 kmh 30.34 in1027.4 mb - 0.00 in0.0 mm 0.00 in0.0 mm
06:00 PM 13.3°F-10.4°C -5.6°F-20.9°C 42% 1.2 mph WSW1.9 kmh WSW 4.6 mph7.4 kmh 30.35 in1027.8 mb - 0.00 in0.0 mm 0.00 in0.0 mm
06:15 PM 13.0°F-10.6°C -6.3°F-21.3°C 41% 2.3 mph WSW3.7 kmh WSW 6.9 mph11.1 kmh 30.35 in1027.8 mb - 0.00 in0.0 mm 0.00 in0.0 mm
06:30 PM 12.7°F-10.7°C -6.6°F-21.4°C 41% 4.6 mph W7.4 kmh W 10.4 mph16.7 kmh 30.36 in1028.1 mb - 0.00 in0.0 mm 0.00 in0.0 mm
06:45 PM 12.4°F-10.9°C -6.4°F-21.3°C 42% 1.2 mph WNW1.9 kmh WNW 2.3 mph3.7 kmh 30.37 in1028.4 mb - 0.00 in0.0 mm 0.00 in0.0 mm
07:00 PM 12.1°F-11.1°C -6.6°F-21.4°C 42% 1.2 mph WSW1.9 kmh WSW 3.5 mph5.6 kmh 30.37 in1028.4 mb - 0.00 in0.0 mm 0.00 in0.0 mm
07:15 PM 12.0°F-11.1°C -6.3°F-21.3°C 43% 1.2 mph WSW1.9 kmh WSW 3.5 mph5.6 kmh 30.38 in1028.8 mb - 0.00 in0.0 mm 0.00 in0.0 mm
07:30 PM 11.9°F-11.2°C -6.3°F-21.3°C 43% 1.2 mph WNW1.9 kmh WNW 3.5 mph5.6 kmh 30.38 in1028.8 mb - 0.00 in0.0 mm 0.00 in0.0 mm
07:45 PM 11.8°F-11.2°C -6.4°F-21.3°C 43% 1.2 mph WNW1.9 kmh WNW 3.5 mph5.6 kmh 30.39 in1029.1 mb - 0.00 in0.0 mm 0.00 in0.0 mm
08:00 PM 11.7°F-11.3°C -6.1°F-21.2°C 44% 1.2 mph WNW1.9 kmh WNW 3.5 mph5.6 kmh 30.39 in1029.1 mb - 0.00 in0.0 mm 0.00 in0.0 mm
08:15 PM 11.5°F-11.4°C -6.2°F-21.2°C 44% 1.2 mph W1.9 kmh W 8.1 mph13.0 kmh 30.39 in1029.1 mb - 0.00 in0.0 mm 0.00 in0.0 mm
08:30 PM 11.5°F-11.4°C -6.2°F-21.2°C 44% 1.2 mph W1.9 kmh W 4.6 mph7.4 kmh 30.39 in1029.1 mb - 0.00 in0.0 mm 0.00 in0.0 mm
08:45 PM 11.4°F-11.4°C -6.8°F-21.6°C 43% 1.2 mph W1.9 kmh W 4.6 mph7.4 kmh 30.40 in1029.5 mb - 0.00 in0.0 mm 0.00 in0.0 mm
09:00 PM 11.3°F-11.5°C -6.4°F-21.3°C 44% 1.2 mph WSW1.9 kmh WSW 4.6 mph7.4 kmh 30.40 in1029.5 mb - 0.00 in0.0 mm 0.00 in0.0 mm
09:15 PM 11.2°F-11.6°C -6.9°F-21.6°C 43% 2.3 mph W3.7 kmh W 6.9 mph11.1 kmh 30.40 in1029.5 mb - 0.00 in0.0 mm 0.00 in0.0 mm
09:30 PM 11.1°F-11.6°C -6.6°F-21.4°C 44% 1.2 mph W1.9 kmh W 4.6 mph7.4 kmh 30.40 in1029.5 mb - 0.00 in0.0 mm 0.00 in0.0 mm
09:45 PM 11.1°F-11.6°C -6.6°F-21.4°C 44% 2.3 mph W3.7 kmh W 5.8 mph9.3 kmh 30.41 in1029.8 mb - 0.00 in0.0 mm 0.00 in0.0 mm
10:00 PM 11.0°F-11.7°C -6.7°F-21.5°C 44% Calm Calm 3.5 mph5.6 kmh 30.41 in1029.8 mb - 0.00 in0.0 mm 0.00 in0.0 mm
10:15 PM 10.9°F-11.7°C -6.8°F-21.6°C 44% 1.2 mph WNW1.9 kmh WNW 6.9 mph11.1 kmh 30.41 in1029.8 mb - 0.00 in0.0 mm 0.00 in0.0 mm
10:30 PM 10.8°F-11.8°C -6.9°F-21.6°C 44% 1.2 mph W1.9 kmh W 2.3 mph3.7 kmh 30.41 in1029.8 mb - 0.00 in0.0 mm 0.00 in0.0 mm
10:45 PM 10.6°F-11.9°C -6.1°F-21.2°C 46% Calm Calm 1.2 mph1.9 kmh 30.41 in1029.8 mb - 0.00 in0.0 mm 0.00 in0.0 mm
11:00 PM 10.2°F-12.1°C -5.6°F-20.9°C 48% Calm Calm 1.2 mph1.9 kmh 30.41 in1029.8 mb - 0.00 in0.0 mm 0.00 in0.0 mm
11:15 PM 10.0°F-12.2°C -5.8°F-21.0°C 48% Calm Calm 1.2 mph1.9 kmh 30.42 in1030.1 mb - 0.00 in0.0 mm 0.00 in0.0 mm
11:30 PM 10.0°F-12.2°C -5.8°F-21.0°C 48% Calm Calm 1.2 mph1.9 kmh 30.42 in1030.1 mb - 0.00 in0.0 mm 0.00 in0.0 mm
11:45 PM 9.9°F-12.3°C -5.1°F-20.6°C 50% Calm Calm -- 30.43 in1030.5 mb - 0.00 in0.0 mm 0.00 in0.0 mm